sensor_id;sensor_type;location;lat;lon;timestamp;pressure;altitude;pressure_sealevel;temperature;humidity
11621;BME280;5866;49.094;11.900;2023-12-22T00:01:33;94520.13;;;4.17;100.00
11621;BME280;5866;49.094;11.900;2023-12-22T00:04:03;94498.47;;;4.15;100.00
11621;BME280;5866;49.094;11.900;2023-12-22T00:06:33;94515.16;;;4.22;100.00
11621;BME280;5866;49.094;11.900;2023-12-22T00:09:00;94526.03;;;4.19;100.00
11621;BME280;5866;49.094;11.900;2023-12-22T00:11:28;94525.00;;;4.28;100.00
11621;BME280;5866;49.094;11.900;2023-12-22T00:13:55;94521.06;;;4.32;100.00
11621;BME280;5866;49.094;11.900;2023-12-22T00:16:23;94542.72;;;4.26;100.00
11621;BME280;5866;49.094;11.900;2023-12-22T00:18:50;94536.16;;;4.22;100.00
11621;BME280;5866;49.094;11.900;2023-12-22T00:21:20;94511.09;;;4.03;100.00
11621;BME280;5866;49.094;11.900;2023-12-22T00:23:47;94521.09;;;3.91;100.00
11621;BME280;5866;49.094;11.900;2023-12-22T00:26:15;94532.56;;;3.90;100.00
11621;BME280;5866;49.094;11.900;2023-12-22T00:28:43;94533.88;;;3.94;100.00
11621;BME280;5866;49.094;11.900;2023-12-22T00:31:10;94520.41;;;3.81;100.00
11621;BME280;5866;49.094;11.900;2023-12-22T00:33:39;94525.19;;;3.86;100.00
11621;BME280;5866;49.094;11.900;2023-12-22T00:36:07;94525.19;;;3.86;100.00
11621;BME280;5866;49.094;11.900;2023-12-22T00:38:36;94539.47;;;3.91;100.00
11621;BME280;5866;49.094;11.900;2023-12-22T00:41:04;94536.66;;;3.85;100.00
11621;BME280;5866;49.094;11.900;2023-12-22T00:43:31;94529.94;;;3.90;100.00
11621;BME280;5866;49.094;11.900;2023-12-22T00:45:59;94514.84;;;3.84;100.00
11621;BME280;5866;49.094;11.900;2023-12-22T00:48:27;94528.28;;;3.81;100.00
11621;BME280;5866;49.094;11.900;2023-12-22T00:50:54;94524.69;;;3.90;100.00
11621;BME280;5866;49.094;11.900;2023-12-22T00:53:22;94525.69;;;3.89;100.00
11621;BME280;5866;49.094;11.900;2023-12-22T00:55:51;94507.34;;;3.89;100.00
11621;BME280;5866;49.094;11.900;2023-12-22T00:58:19;94499.13;;;3.76;100.00
11621;BME280;5866;49.094;11.900;2023-12-22T01:00:46;94510.25;;;3.78;100.00
11621;BME280;5866;49.094;11.900;2023-12-22T01:03:14;94506.34;;;3.66;100.00
11621;BME280;5866;49.094;11.900;2023-12-22T01:05:42;94494.50;;;3.54;100.00
11621;BME280;5866;49.094;11.900;2023-12-22T01:08:10;94520.88;;;3.61;100.00
11621;BME280;5866;49.094;11.900;2023-12-22T01:10:37;94509.25;;;3.47;100.00
11621;BME280;5866;49.094;11.900;2023-12-22T01:13:06;94518.25;;;3.53;100.00
11621;BME280;5866;49.094;11.900;2023-12-22T01:15:34;94525.47;;;3.51;100.00
11621;BME280;5866;49.094;11.900;2023-12-22T01:18:02;94538.09;;;3.55;100.00
11621;BME280;5866;49.094;11.900;2023-12-22T01:20:30;94547.25;;;3.59;100.00
11621;BME280;5866;49.094;11.900;2023-12-22T01:22:57;94528.25;;;3.57;100.00
11621;BME280;5866;49.094;11.900;2023-12-22T01:25:25;94536.78;;;3.51;100.00
11621;BME280;5866;49.094;11.900;2023-12-22T01:27:53;94548.06;;;3.52;100.00
11621;BME280;5866;49.094;11.900;2023-12-22T01:30:22;94554.59;;;3.48;100.00
11621;BME280;5866;49.094;11.900;2023-12-22T01:32:49;94548.22;;;3.50;100.00
11621;BME280;5866;49.094;11.900;2023-12-22T01:35:17;94552.16;;;3.46;100.00
11621;BME280;5866;49.094;11.900;2023-12-22T01:37:44;94542.13;;;3.42;100.00
11621;BME280;5866;49.094;11.900;2023-12-22T01:40:14;94544.63;;;3.51;100.00
11621;BME280;5866;49.094;11.900;2023-12-22T01:42:41;94548.88;;;3.60;100.00
11621;BME280;5866;49.094;11.900;2023-12-22T01:45:09;94532.28;;;3.36;100.00
11621;BME280;5866;49.094;11.900;2023-12-22T01:47:39;94556.09;;;3.50;100.00
11621;BME280;5866;49.094;11.900;2023-12-22T01:50:08;94563.91;;;3.42;100.00
11621;BME280;5866;49.094;11.900;2023-12-22T01:52:38;94566.38;;;3.44;100.00
11621;BME280;5866;49.094;11.900;2023-12-22T01:55:09;94565.25;;;3.46;100.00
11621;BME280;5866;49.094;11.900;2023-12-22T01:57:37;94556.69;;;3.28;100.00
11621;BME280;5866;49.094;11.900;2023-12-22T02:00:07;94562.94;;;3.35;100.00
11621;BME280;5866;49.094;11.900;2023-12-22T02:02:40;94561.00;;;3.45;100.00
11621;BME280;5866;49.094;11.900;2023-12-22T02:05:10;94570.09;;;3.33;100.00
11621;BME280;5866;49.094;11.900;2023-12-22T02:07:40;94583.56;;;3.38;100.00
11621;BME280;5866;49.094;11.900;2023-12-22T02:10:09;94581.94;;;3.37;100.00
11621;BME280;5866;49.094;11.900;2023-12-22T02:12:37;94570.63;;;3.37;100.00
11621;BME280;5866;49.094;11.900;2023-12-22T02:15:06;94594.03;;;3.38;100.00
11621;BME280;5866;49.094;11.900;2023-12-22T02:17:43;94578.03;;;3.41;100.00
11621;BME280;5866;49.094;11.900;2023-12-22T02:20:16;94565.06;;;3.40;100.00
11621;BME280;5866;49.094;11.900;2023-12-22T02:22:45;94567.53;;;3.41;100.00
11621;BME280;5866;49.094;11.900;2023-12-22T02:25:13;94559.31;;;3.36;100.00
11621;BME280;5866;49.094;11.900;2023-12-22T02:27:45;94567.50;;;3.33;100.00
11621;BME280;5866;49.094;11.900;2023-12-22T02:30:24;94568.19;;;3.35;100.00
11621;BME280;5866;49.094;11.900;2023-12-22T02:32:56;94558.00;;;3.32;100.00
11621;BME280;5866;49.094;11.900;2023-12-22T02:35:28;94557.31;;;3.22;100.00
11621;BME280;5866;49.094;11.900;2023-12-22T02:37:58;94558.31;;;3.29;100.00
11621;BME280;5866;49.094;11.900;2023-12-22T02:40:27;94562.38;;;3.23;100.00
11621;BME280;5866;49.094;11.900;2023-12-22T02:42:55;94556.34;;;3.31;100.00
11621;BME280;5866;49.094;11.900;2023-12-22T02:45:22;94566.50;;;3.26;100.00
11621;BME280;5866;49.094;11.900;2023-12-22T02:47:50;94557.66;;;3.27;100.00
11621;BME280;5866;49.094;11.900;2023-12-22T02:50:18;94565.66;;;3.26;100.00
11621;BME280;5866;49.094;11.900;2023-12-22T02:52:46;94567.16;;;3.28;100.00
11621;BME280;5866;49.094;11.900;2023-12-22T02:55:15;94567.47;;;3.25;100.00
11621;BME280;5866;49.094;11.900;2023-12-22T02:57:43;94561.94;;;3.28;100.00
11621;BME280;5866;49.094;11.900;2023-12-22T03:00:11;94581.56;;;3.24;100.00
11621;BME280;5866;49.094;11.900;2023-12-22T03:02:39;94593.66;;;3.25;100.00
11621;BME280;5866;49.094;11.900;2023-12-22T03:05:06;94582.19;;;3.18;100.00
11621;BME280;5866;49.094;11.900;2023-12-22T03:07:34;94576.50;;;3.31;100.00
11621;BME280;5866;49.094;11.900;2023-12-22T03:10:02;94570.75;;;3.27;100.00
11621;BME280;5866;49.094;11.900;2023-12-22T03:12:31;94579.78;;;3.25;100.00
11621;BME280;5866;49.094;11.900;2023-12-22T03:14:59;94579.28;;;3.29;100.00
11621;BME280;5866;49.094;11.900;2023-12-22T03:17:26;94579.91;;;3.23;100.00
11621;BME280;5866;49.094;11.900;2023-12-22T03:19:54;94569.88;;;3.10;100.00
11621;BME280;5866;49.094;11.900;2023-12-22T03:22:22;94576.94;;;3.18;100.00
11621;BME280;5866;49.094;11.900;2023-12-22T03:24:49;94565.44;;;3.11;100.00
11621;BME280;5866;49.094;11.900;2023-12-22T03:27:17;94594.25;;;3.11;100.00
11621;BME280;5866;49.094;11.900;2023-12-22T03:29:47;94578.56;;;3.19;100.00
11621;BME280;5866;49.094;11.900;2023-12-22T03:32:15;94584.44;;;3.13;100.00
11621;BME280;5866;49.094;11.900;2023-12-22T03:34:43;94598.84;;;3.09;100.00
11621;BME280;5866;49.094;11.900;2023-12-22T03:37:10;94602.75;;;3.05;100.00
11621;BME280;5866;49.094;11.900;2023-12-22T03:39:38;94601.09;;;3.04;100.00
11621;BME280;5866;49.094;11.900;2023-12-22T03:42:05;94583.75;;;3.03;100.00
11621;BME280;5866;49.094;11.900;2023-12-22T03:44:33;94580.47;;;3.01;100.00
11621;BME280;5866;49.094;11.900;2023-12-22T03:47:02;94594.50;;;2.92;100.00
11621;BME280;5866;49.094;11.900;2023-12-22T03:49:30;94602.34;;;2.92;100.00
11621;BME280;5866;49.094;11.900;2023-12-22T03:51:57;94609.25;;;2.93;100.00
11621;BME280;5866;49.094;11.900;2023-12-22T03:54:25;94606.25;;;2.88;100.00
11621;BME280;5866;49.094;11.900;2023-12-22T03:56:53;94604.25;;;2.82;100.00
11621;BME280;5866;49.094;11.900;2023-12-22T03:59:21;94591.84;;;2.84;100.00
11621;BME280;5866;49.094;11.900;2023-12-22T04:01:52;94611.13;;;2.83;100.00
11621;BME280;5866;49.094;11.900;2023-12-22T04:04:23;94605.03;;;2.74;100.00
11621;BME280;5866;49.094;11.900;2023-12-22T04:06:53;94603.88;;;2.77;100.00
11621;BME280;5866;49.094;11.900;2023-12-22T04:09:21;94607.84;;;2.81;100.00
11621;BME280;5866;49.094;11.900;2023-12-22T04:11:48;94606.16;;;2.72;100.00
11621;BME280;5866;49.094;11.900;2023-12-22T04:14:16;94616.44;;;2.65;100.00
11621;BME280;5866;49.094;11.900;2023-12-22T04:16:45;94634.59;;;2.67;100.00
11621;BME280;5866;49.094;11.900;2023-12-22T04:19:13;94623.69;;;2.54;100.00
11621;BME280;5866;49.094;11.900;2023-12-22T04:21:42;94607.72;;;2.39;100.00
11621;BME280;5866;49.094;11.900;2023-12-22T04:24:09;94615.16;;;2.26;100.00
11621;BME280;5866;49.094;11.900;2023-12-22T04:26:37;94613.00;;;2.21;100.00
11621;BME280;5866;49.094;11.900;2023-12-22T04:29:04;94630.03;;;2.25;100.00
11621;BME280;5866;49.094;11.900;2023-12-22T04:31:32;94616.19;;;2.33;100.00
11621;BME280;5866;49.094;11.900;2023-12-22T04:33:59;94604.38;;;2.29;100.00
11621;BME280;5866;49.094;11.900;2023-12-22T04:36:27;94612.59;;;2.34;100.00
11621;BME280;5866;49.094;11.900;2023-12-22T04:38:56;94605.63;;;2.42;100.00
11621;BME280;5866;49.094;11.900;2023-12-22T04:41:24;94614.66;;;2.48;100.00
11621;BME280;5866;49.094;11.900;2023-12-22T04:43:51;94612.56;;;2.52;100.00
11621;BME280;5866;49.094;11.900;2023-12-22T04:46:19;94622.06;;;2.53;100.00
11621;BME280;5866;49.094;11.900;2023-12-22T04:48:46;94611.16;;;2.39;100.00
11621;BME280;5866;49.094;11.900;2023-12-22T04:51:14;94628.81;;;2.37;100.00
11621;BME280;5866;49.094;11.900;2023-12-22T04:53:42;94622.53;;;2.30;100.00
11621;BME280;5866;49.094;11.900;2023-12-22T04:56:11;94629.94;;;2.35;100.00
11621;BME280;5866;49.094;11.900;2023-12-22T04:58:38;94629.78;;;2.36;100.00
11621;BME280;5866;49.094;11.900;2023-12-22T05:01:06;94629.94;;;2.35;100.00
11621;BME280;5866;49.094;11.900;2023-12-22T05:03:34;94636.31;;;2.32;100.00
11621;BME280;5866;49.094;11.900;2023-12-22T05:06:01;94637.09;;;2.33;100.00
11621;BME280;5866;49.094;11.900;2023-12-22T05:08:29;94630.91;;;2.34;100.00
11621;BME280;5866;49.094;11.900;2023-12-22T05:10:57;94640.38;;;2.35;100.00
11621;BME280;5866;49.094;11.900;2023-12-22T05:13:26;94626.63;;;2.33;100.00
11621;BME280;5866;49.094;11.900;2023-12-22T05:15:53;94635.38;;;2.41;100.00
11621;BME280;5866;49.094;11.900;2023-12-22T05:18:21;94640.94;;;2.38;100.00
11621;BME280;5866;49.094;11.900;2023-12-22T05:20:49;94657.97;;;2.42;100.00
11621;BME280;5866;49.094;11.900;2023-12-22T05:23:16;94633.44;;;2.43;100.00
11621;BME280;5866;49.094;11.900;2023-12-22T05:25:44;94638.97;;;2.40;100.00
11621;BME280;5866;49.094;11.900;2023-12-22T05:28:11;94638.66;;;2.43;100.00
11621;BME280;5866;49.094;11.900;2023-12-22T05:30:40;94654.06;;;2.47;100.00
11621;BME280;5866;49.094;11.900;2023-12-22T05:33:08;94651.81;;;2.52;100.00
11621;BME280;5866;49.094;11.900;2023-12-22T05:35:36;94646.22;;;2.47;100.00
11621;BME280;5866;49.094;11.900;2023-12-22T05:38:06;94615.53;;;2.57;100.00
11621;BME280;5866;49.094;11.900;2023-12-22T05:40:34;94655.91;;;2.54;100.00
11621;BME280;5866;49.094;11.900;2023-12-22T05:43:01;94677.06;;;2.61;100.00
11621;BME280;5866;49.094;11.900;2023-12-22T05:45:29;94672.66;;;2.61;100.00
11621;BME280;5866;49.094;11.900;2023-12-22T05:47:58;94678.63;;;2.71;100.00
11621;BME280;5866;49.094;11.900;2023-12-22T05:50:26;94659.13;;;2.66;100.00
11621;BME280;5866;49.094;11.900;2023-12-22T05:52:53;94682.97;;;2.63;100.00
11621;BME280;5866;49.094;11.900;2023-12-22T05:55:21;94635.88;;;2.63;100.00
11621;BME280;5866;49.094;11.900;2023-12-22T05:57:49;94662.25;;;2.69;100.00
11621;BME280;5866;49.094;11.900;2023-12-22T06:00:17;94649.38;;;2.76;100.00
11621;BME280;5866;49.094;11.900;2023-12-22T06:02:45;94669.41;;;2.85;100.00
11621;BME280;5866;49.094;11.900;2023-12-22T06:05:14;94673.94;;;2.83;100.00
11621;BME280;5866;49.094;11.900;2023-12-22T06:07:41;94680.00;;;2.83;100.00
11621;BME280;5866;49.094;11.900;2023-12-22T06:10:09;94677.56;;;2.82;100.00
11621;BME280;5866;49.094;11.900;2023-12-22T06:12:37;94684.69;;;2.72;100.00
11621;BME280;5866;49.094;11.900;2023-12-22T06:15:06;94678.47;;;2.73;100.00
11621;BME280;5866;49.094;11.900;2023-12-22T06:17:33;94675.34;;;2.69;100.00
11621;BME280;5866;49.094;11.900;2023-12-22T06:20:01;94670.66;;;2.81;100.00
11621;BME280;5866;49.094;11.900;2023-12-22T06:22:30;94655.91;;;2.72;100.00
11621;BME280;5866;49.094;11.900;2023-12-22T06:24:58;94671.00;;;2.78;100.00
11621;BME280;5866;49.094;11.900;2023-12-22T06:27:26;94677.34;;;2.75;100.00
11621;BME280;5866;49.094;11.900;2023-12-22T06:29:54;94669.19;;;2.78;100.00
11621;BME280;5866;49.094;11.900;2023-12-22T06:32:22;94674.09;;;2.99;100.00
11621;BME280;5866;49.094;11.900;2023-12-22T06:34:50;94671.19;;;2.84;100.00
11621;BME280;5866;49.094;11.900;2023-12-22T06:37:18;94678.22;;;2.84;100.00
11621;BME280;5866;49.094;11.900;2023-12-22T06:39:47;94689.53;;;2.84;100.00
11621;BME280;5866;49.094;11.900;2023-12-22T06:42:14;94682.34;;;2.86;100.00
11621;BME280;5866;49.094;11.900;2023-12-22T06:44:42;94681.50;;;2.86;100.00
11621;BME280;5866;49.094;11.900;2023-12-22T06:47:10;94694.09;;;2.82;100.00
11621;BME280;5866;49.094;11.900;2023-12-22T06:49:38;94694.56;;;2.78;100.00
11621;BME280;5866;49.094;11.900;2023-12-22T06:52:05;94693.50;;;2.71;100.00
11621;BME280;5866;49.094;11.900;2023-12-22T06:54:34;94696.00;;;2.72;100.00
11621;BME280;5866;49.094;11.900;2023-12-22T06:57:04;94690.00;;;2.62;100.00
11621;BME280;5866;49.094;11.900;2023-12-22T06:59:32;94699.13;;;2.58;100.00
11621;BME280;5866;49.094;11.900;2023-12-22T07:02:02;94689.78;;;2.56;100.00
11621;BME280;5866;49.094;11.900;2023-12-22T07:05:03;94703.84;;;2.55;100.00
11621;BME280;5866;49.094;11.900;2023-12-22T07:07:31;94708.34;;;2.45;100.00
11621;BME280;5866;49.094;11.900;2023-12-22T07:10:01;94720.97;;;2.31;100.00
11621;BME280;5866;49.094;11.900;2023-12-22T07:12:30;94730.59;;;2.13;100.00
11621;BME280;5866;49.094;11.900;2023-12-22T07:14:58;94730.66;;;2.04;100.00
11621;BME280;5866;49.094;11.900;2023-12-22T07:17:26;94739.25;;;2.14;100.00
11621;BME280;5866;49.094;11.900;2023-12-22T07:19:54;94738.25;;;1.97;100.00
11621;BME280;5866;49.094;11.900;2023-12-22T07:22:24;94741.41;;;2.01;100.00
11621;BME280;5866;49.094;11.900;2023-12-22T07:24:52;94745.69;;;2.19;100.00
11621;BME280;5866;49.094;11.900;2023-12-22T07:27:19;94753.91;;;2.24;100.00
11621;BME280;5866;49.094;11.900;2023-12-22T07:29:48;94746.91;;;2.42;100.00
11621;BME280;5866;49.094;11.900;2023-12-22T07:32:17;94751.75;;;2.37;100.00
11621;BME280;5866;49.094;11.900;2023-12-22T07:34:45;94730.78;;;2.47;100.00
11621;BME280;5866;49.094;11.900;2023-12-22T07:37:12;94750.66;;;2.58;100.00
11621;BME280;5866;49.094;11.900;2023-12-22T07:39:40;94748.47;;;2.71;100.00
11621;BME280;5866;49.094;11.900;2023-12-22T07:42:08;94743.28;;;2.79;100.00
11621;BME280;5866;49.094;11.900;2023-12-22T07:44:35;94748.16;;;2.91;100.00
11621;BME280;5866;49.094;11.900;2023-12-22T07:47:04;94722.50;;;2.95;100.00
11621;BME280;5866;49.094;11.900;2023-12-22T07:49:33;94744.16;;;3.05;100.00
11621;BME280;5866;49.094;11.900;2023-12-22T07:52:01;94742.28;;;3.15;100.00
11621;BME280;5866;49.094;11.900;2023-12-22T07:54:29;94747.56;;;3.23;100.00
11621;BME280;5866;49.094;11.900;2023-12-22T07:56:57;94745.00;;;3.31;100.00
11621;BME280;5866;49.094;11.900;2023-12-22T07:59:25;94758.41;;;3.28;100.00
11621;BME280;5866;49.094;11.900;2023-12-22T08:01:57;94753.84;;;3.30;100.00
11621;BME280;5866;49.094;11.900;2023-12-22T08:04:27;94744.03;;;3.32;100.00
11621;BME280;5866;49.094;11.900;2023-12-22T08:06:54;94758.47;;;3.36;100.00
11621;BME280;5866;49.094;11.900;2023-12-22T08:09:22;94759.50;;;3.43;100.00
11621;BME280;5866;49.094;11.900;2023-12-22T08:11:50;94763.41;;;3.39;100.00
11621;BME280;5866;49.094;11.900;2023-12-22T08:14:19;94784.03;;;3.42;100.00
11621;BME280;5866;49.094;11.900;2023-12-22T08:16:47;94776.50;;;3.39;100.00
11621;BME280;5866;49.094;11.900;2023-12-22T08:19:14;94782.09;;;3.44;100.00
11621;BME280;5866;49.094;11.900;2023-12-22T08:21:43;94793.56;;;3.43;100.00
11621;BME280;5866;49.094;11.900;2023-12-22T08:24:14;94787.50;;;3.43;100.00
11621;BME280;5866;49.094;11.900;2023-12-22T08:26:48;94790.63;;;3.46;100.00
11621;BME280;5866;49.094;11.900;2023-12-22T08:29:16;94795.91;;;3.54;100.00
11621;BME280;5866;49.094;11.900;2023-12-22T08:31:45;94806.41;;;3.54;100.00
11621;BME280;5866;49.094;11.900;2023-12-22T08:34:13;94823.94;;;3.54;100.00
11621;BME280;5866;49.094;11.900;2023-12-22T08:36:40;94804.97;;;3.60;100.00
11621;BME280;5866;49.094;11.900;2023-12-22T08:39:11;94801.56;;;3.67;100.00
11621;BME280;5866;49.094;11.900;2023-12-22T08:41:39;94803.59;;;3.81;100.00
11621;BME280;5866;49.094;11.900;2023-12-22T08:44:07;94804.28;;;3.83;100.00
11621;BME280;5866;49.094;11.900;2023-12-22T08:46:35;94797.81;;;3.95;100.00
11621;BME280;5866;49.094;11.900;2023-12-22T08:49:02;94795.50;;;4.00;100.00
11621;BME280;5866;49.094;11.900;2023-12-22T08:51:30;94799.13;;;3.99;100.00
11621;BME280;5866;49.094;11.900;2023-12-22T08:53:58;94812.31;;;4.16;100.00
11621;BME280;5866;49.094;11.900;2023-12-22T08:56:27;94804.44;;;4.16;100.00
11621;BME280;5866;49.094;11.900;2023-12-22T08:58:54;94810.81;;;4.13;100.00
11621;BME280;5866;49.094;11.900;2023-12-22T09:01:25;94825.44;;;4.16;100.00
11621;BME280;5866;49.094;11.900;2023-12-22T09:03:52;94836.25;;;4.13;100.00
11621;BME280;5866;49.094;11.900;2023-12-22T09:06:21;94842.03;;;3.90;100.00
11621;BME280;5866;49.094;11.900;2023-12-22T09:08:49;94842.28;;;3.79;100.00
11621;BME280;5866;49.094;11.900;2023-12-22T09:11:18;94840.16;;;3.75;100.00
11621;BME280;5866;49.094;11.900;2023-12-22T09:13:47;94839.66;;;3.79;100.00
11621;BME280;5866;49.094;11.900;2023-12-22T09:16:20;94837.81;;;3.97;100.00
11621;BME280;5866;49.094;11.900;2023-12-22T09:18:48;94842.69;;;3.92;100.00
11621;BME280;5866;49.094;11.900;2023-12-22T09:21:17;94844.28;;;3.85;100.00
11621;BME280;5866;49.094;11.900;2023-12-22T09:23:45;94842.66;;;3.84;100.00
11621;BME280;5866;49.094;11.900;2023-12-22T09:26:13;94848.19;;;3.81;100.00
11621;BME280;5866;49.094;11.900;2023-12-22T09:28:42;94865.06;;;3.79;100.00
11621;BME280;5866;49.094;11.900;2023-12-22T09:31:11;94870.44;;;3.77;100.00
11621;BME280;5866;49.094;11.900;2023-12-22T09:33:39;94880.53;;;3.90;100.00
11621;BME280;5866;49.094;11.900;2023-12-22T09:36:08;94877.81;;;3.99;100.00
11621;BME280;5866;49.094;11.900;2023-12-22T09:38:35;94851.63;;;4.08;100.00
11621;BME280;5866;49.094;11.900;2023-12-22T09:41:03;94863.16;;;4.15;100.00
11621;BME280;5866;49.094;11.900;2023-12-22T09:43:35;94864.13;;;4.14;100.00
11621;BME280;5866;49.094;11.900;2023-12-22T09:46:04;94859.72;;;4.22;100.00
11621;BME280;5866;49.094;11.900;2023-12-22T09:48:33;94861.91;;;4.27;100.00
11621;BME280;5866;49.094;11.900;2023-12-22T09:51:07;94850.09;;;4.31;100.00
11621;BME280;5866;49.094;11.900;2023-12-22T09:53:35;94856.47;;;4.28;100.00
11621;BME280;5866;49.094;11.900;2023-12-22T09:56:04;94851.44;;;4.35;100.00
11621;BME280;5866;49.094;11.900;2023-12-22T09:58:34;94847.88;;;4.52;100.00
11621;BME280;5866;49.094;11.900;2023-12-22T10:01:04;94835.22;;;4.47;100.00
11621;BME280;5866;49.094;11.900;2023-12-22T10:03:34;94847.06;;;4.51;100.00
11621;BME280;5866;49.094;11.900;2023-12-22T10:06:04;94831.13;;;4.53;100.00
11621;BME280;5866;49.094;11.900;2023-12-22T10:08:32;94808.19;;;4.63;100.00
11621;BME280;5866;49.094;11.900;2023-12-22T10:11:01;94818.41;;;4.74;100.00
11621;BME280;5866;49.094;11.900;2023-12-22T10:13:29;94797.56;;;4.72;100.00
11621;BME280;5866;49.094;11.900;2023-12-22T10:15:57;94811.53;;;4.81;100.00
11621;BME280;5866;49.094;11.900;2023-12-22T10:18:25;94808.91;;;4.81;100.00
11621;BME280;5866;49.094;11.900;2023-12-22T10:20:54;94798.72;;;4.78;100.00
11621;BME280;5866;49.094;11.900;2023-12-22T10:23:22;94795.09;;;4.71;100.00
11621;BME280;5866;49.094;11.900;2023-12-22T10:25:50;94795.25;;;4.69;100.00
11621;BME280;5866;49.094;11.900;2023-12-22T10:28:18;94781.94;;;4.63;100.00
11621;BME280;5866;49.094;11.900;2023-12-22T10:30:51;94800.81;;;4.58;100.00
11621;BME280;5866;49.094;11.900;2023-12-22T10:33:19;94805.53;;;4.47;100.00
11621;BME280;5866;49.094;11.900;2023-12-22T10:35:47;94800.22;;;4.23;100.00
11621;BME280;5866;49.094;11.900;2023-12-22T10:38:19;94811.44;;;4.07;100.00
11621;BME280;5866;49.094;11.900;2023-12-22T10:40:46;94797.28;;;3.92;100.00
11621;BME280;5866;49.094;11.900;2023-12-22T10:43:14;94810.16;;;3.77;100.00
11621;BME280;5866;49.094;11.900;2023-12-22T10:45:43;94813.06;;;3.66;100.00
11621;BME280;5866;49.094;11.900;2023-12-22T10:48:10;94836.78;;;3.65;100.00
11621;BME280;5866;49.094;11.900;2023-12-22T10:50:39;94828.25;;;3.63;100.00
11621;BME280;5866;49.094;11.900;2023-12-22T10:53:07;94828.25;;;3.63;100.00
11621;BME280;5866;49.094;11.900;2023-12-22T10:55:36;94819.91;;;3.67;100.00
11621;BME280;5866;49.094;11.900;2023-12-22T10:58:05;94805.94;;;3.84;100.00
11621;BME280;5866;49.094;11.900;2023-12-22T11:00:32;94788.53;;;3.83;100.00
11621;BME280;5866;49.094;11.900;2023-12-22T11:03:06;94792.34;;;3.89;100.00
11621;BME280;5866;49.094;11.900;2023-12-22T11:05:36;94794.56;;;4.10;100.00
11621;BME280;5866;49.094;11.900;2023-12-22T11:08:07;94797.72;;;4.21;100.00
11621;BME280;5866;49.094;11.900;2023-12-22T11:10:41;94787.88;;;4.15;100.00
11621;BME280;5866;49.094;11.900;2023-12-22T11:13:10;94777.25;;;4.25;100.00
11621;BME280;5866;49.094;11.900;2023-12-22T11:15:40;94784.78;;;4.28;100.00
11621;BME280;5866;49.094;11.900;2023-12-22T11:18:09;94774.69;;;4.49;100.00
11621;BME280;5866;49.094;11.900;2023-12-22T11:20:37;94770.81;;;4.85;100.00
11621;BME280;5866;49.094;11.900;2023-12-22T11:23:06;94754.53;;;5.46;100.00
11621;BME280;5866;49.094;11.900;2023-12-22T11:25:34;94735.38;;;5.76;100.00
11621;BME280;5866;49.094;11.900;2023-12-22T11:28:05;94743.53;;;5.26;100.00
11621;BME280;5866;49.094;11.900;2023-12-22T11:30:35;94720.75;;;5.03;100.00
11621;BME280;5866;49.094;11.900;2023-12-22T11:33:04;94744.88;;;4.82;100.00
11621;BME280;5866;49.094;11.900;2023-12-22T11:35:32;94743.91;;;4.75;100.00
11621;BME280;5866;49.094;11.900;2023-12-22T11:38:01;94732.38;;;4.68;100.00
11621;BME280;5866;49.094;11.900;2023-12-22T11:40:30;94755.66;;;4.63;100.00
11621;BME280;5866;49.094;11.900;2023-12-22T11:42:59;94749.09;;;4.59;100.00
11621;BME280;5866;49.094;11.900;2023-12-22T11:45:32;94741.56;;;4.48;100.00
11621;BME280;5866;49.094;11.900;2023-12-22T11:48:06;94749.75;;;4.45;100.00
11621;BME280;5866;49.094;11.900;2023-12-22T11:50:34;94740.81;;;4.22;100.00
11621;BME280;5866;49.094;11.900;2023-12-22T11:53:18;94739.84;;;4.23;100.00
11621;BME280;5866;49.094;11.900;2023-12-22T11:56:02;94751.50;;;4.20;100.00
11621;BME280;5866;49.094;11.900;2023-12-22T11:58:38;94760.22;;;4.37;100.00
11621;BME280;5866;49.094;11.900;2023-12-22T12:01:08;94764.59;;;4.20;100.00
11621;BME280;5866;49.094;11.900;2023-12-22T12:03:37;94765.34;;;4.04;100.00
11621;BME280;5866;49.094;11.900;2023-12-22T12:06:11;94755.38;;;4.08;100.00
11621;BME280;5866;49.094;11.900;2023-12-22T12:08:39;94758.88;;;4.17;100.00
11621;BME280;5866;49.094;11.900;2023-12-22T12:11:08;94735.31;;;4.49;100.00
11621;BME280;5866;49.094;11.900;2023-12-22T12:13:43;94725.00;;;4.55;100.00
11621;BME280;5866;49.094;11.900;2023-12-22T12:16:14;94710.56;;;4.83;100.00
11621;BME280;5866;49.094;11.900;2023-12-22T12:18:42;94702.53;;;4.85;100.00
11621;BME280;5866;49.094;11.900;2023-12-22T12:21:10;94716.31;;;4.71;100.00
11621;BME280;5866;49.094;11.900;2023-12-22T12:23:38;94728.44;;;4.56;100.00
11621;BME280;5866;49.094;11.900;2023-12-22T12:26:08;94714.19;;;4.74;100.00
11621;BME280;5866;49.094;11.900;2023-12-22T12:28:36;94703.19;;;4.87;100.00
11621;BME280;5866;49.094;11.900;2023-12-22T12:31:06;94703.19;;;4.79;100.00
11621;BME280;5866;49.094;11.900;2023-12-22T12:33:36;94706.63;;;4.79;100.00
11621;BME280;5866;49.094;11.900;2023-12-22T12:36:04;94696.75;;;5.14;100.00
11621;BME280;5866;49.094;11.900;2023-12-22T12:38:45;94693.63;;;5.18;100.00
11621;BME280;5866;49.094;11.900;2023-12-22T12:41:15;94666.06;;;5.06;100.00
11621;BME280;5866;49.094;11.900;2023-12-22T12:43:43;94665.41;;;5.04;100.00
11621;BME280;5866;49.094;11.900;2023-12-22T12:46:12;94653.22;;;5.19;100.00
11621;BME280;5866;49.094;11.900;2023-12-22T12:48:41;94662.28;;;5.09;100.00
11621;BME280;5866;49.094;11.900;2023-12-22T12:51:09;94654.03;;;5.20;100.00
11621;BME280;5866;49.094;11.900;2023-12-22T12:53:37;94644.69;;;5.17;100.00
11621;BME280;5866;49.094;11.900;2023-12-22T12:56:05;94638.75;;;5.23;100.00
11621;BME280;5866;49.094;11.900;2023-12-22T12:58:32;94629.41;;;5.21;100.00
11621;BME280;5866;49.094;11.900;2023-12-22T13:01:06;94615.69;;;5.41;100.00
11621;BME280;5866;49.094;11.900;2023-12-22T13:03:52;94618.72;;;5.22;100.00
11621;BME280;5866;49.094;11.900;2023-12-22T13:06:20;94618.69;;;5.30;100.00
11621;BME280;5866;49.094;11.900;2023-12-22T13:08:48;94611.31;;;5.34;100.00